createdAt,value
2018-03-03T00:00:08.915Z,994.62
2018-03-03T00:01:08.914Z,994.61
2018-03-03T00:02:08.910Z,994.63
2018-03-03T00:03:08.908Z,994.59
2018-03-03T00:04:08.890Z,994.54
2018-03-03T00:05:08.890Z,994.59
2018-03-03T00:06:08.885Z,994.53
2018-03-03T00:07:08.876Z,994.57
2018-03-03T00:08:08.866Z,994.57
2018-03-03T00:09:08.870Z,994.52
2018-03-03T00:10:08.859Z,994.58
2018-03-03T00:11:08.842Z,994.50
2018-03-03T00:12:08.848Z,994.57
2018-03-03T00:13:08.847Z,994.48
2018-03-03T00:14:08.846Z,994.49
2018-03-03T00:15:08.831Z,994.52
2018-03-03T00:16:08.828Z,994.47
2018-03-03T00:17:08.817Z,994.48
2018-03-03T00:18:08.814Z,994.51
2018-03-03T00:19:08.822Z,994.50
2018-03-03T00:20:08.800Z,994.48
2018-03-03T00:21:08.801Z,994.47
2018-03-03T00:22:08.791Z,994.58
2018-03-03T00:23:08.782Z,994.49
2018-03-03T00:24:08.785Z,994.50
2018-03-03T00:25:08.772Z,994.51
2018-03-03T00:26:08.773Z,994.50
2018-03-03T00:27:08.760Z,994.51
2018-03-03T00:28:08.763Z,994.57
2018-03-03T00:29:08.766Z,994.55
2018-03-03T00:30:08.744Z,994.52
2018-03-03T00:31:08.736Z,994.55
2018-03-03T00:32:08.736Z,994.55
2018-03-03T00:33:08.723Z,994.52
2018-03-03T00:34:08.724Z,994.54
2018-03-03T00:35:08.719Z,994.50
2018-03-03T00:36:08.721Z,994.46
2018-03-03T00:37:08.709Z,994.44
2018-03-03T00:38:08.714Z,994.43
2018-03-03T00:39:08.694Z,994.44
2018-03-03T00:40:08.688Z,994.40
2018-03-03T00:41:08.738Z,994.40
2018-03-03T00:42:08.689Z,994.43
2018-03-03T00:43:08.671Z,994.40
2018-03-03T00:44:08.654Z,994.41
2018-03-03T00:45:08.656Z,994.39
2018-03-03T00:46:08.648Z,994.38
2018-03-03T00:47:08.645Z,994.41
2018-03-03T00:48:08.639Z,994.43
2018-03-03T00:49:08.629Z,994.41
2018-03-03T00:50:08.637Z,994.40
2018-03-03T00:51:08.635Z,994.44
2018-03-03T00:52:08.628Z,994.42
2018-03-03T00:53:08.618Z,994.50
2018-03-03T00:54:08.604Z,994.47
2018-03-03T00:55:08.597Z,994.43
2018-03-03T00:56:08.596Z,994.42
2018-03-03T00:57:08.600Z,994.39
2018-03-03T00:58:08.586Z,994.45
2018-03-03T00:59:08.566Z,994.35
2018-03-03T01:00:08.585Z,994.36
2018-03-03T01:01:08.563Z,994.33
2018-03-03T01:02:08.552Z,994.33
2018-03-03T01:03:08.558Z,994.28
2018-03-03T01:04:08.546Z,994.33
2018-03-03T01:05:08.554Z,994.33
2018-03-03T01:06:08.537Z,994.29
2018-03-03T01:07:08.541Z,994.33
2018-03-03T01:08:08.518Z,994.28
2018-03-03T01:09:08.514Z,994.30
2018-03-03T01:10:08.504Z,994.27
2018-03-03T01:11:08.530Z,994.23
2018-03-03T01:12:08.546Z,994.25
2018-03-03T01:13:08.496Z,994.27
2018-03-03T01:14:08.507Z,994.27
2018-03-03T01:15:08.482Z,994.29
2018-03-03T01:16:08.479Z,994.22
2018-03-03T01:17:08.472Z,994.20
2018-03-03T01:18:08.466Z,994.18
2018-03-03T01:19:08.469Z,994.20
2018-03-03T01:20:08.459Z,994.22
2018-03-03T01:21:08.447Z,994.15
2018-03-03T01:22:08.458Z,994.12
2018-03-03T01:23:08.449Z,994.20
2018-03-03T01:24:08.436Z,994.17
2018-03-03T01:25:08.429Z,994.18
2018-03-03T01:26:08.425Z,994.19
2018-03-03T01:27:08.419Z,994.10
2018-03-03T01:28:08.405Z,994.08
2018-03-03T01:29:08.409Z,994.14
2018-03-03T01:30:08.393Z,994.10
2018-03-03T01:31:08.402Z,994.13
2018-03-03T01:32:08.393Z,994.12
2018-03-03T01:33:08.392Z,994.13
2018-03-03T01:34:08.381Z,994.17
2018-03-03T01:35:08.383Z,994.11
2018-03-03T01:36:08.365Z,994.10
2018-03-03T01:37:08.368Z,994.06
2018-03-03T01:38:08.364Z,994.11
2018-03-03T01:39:08.359Z,994.04
2018-03-03T01:40:08.344Z,994.06
2018-03-03T01:41:08.338Z,994.08
2018-03-03T01:42:08.334Z,994.02
2018-03-03T01:43:08.318Z,994.01
2018-03-03T01:44:08.319Z,993.99
2018-03-03T01:45:08.307Z,993.95
2018-03-03T01:46:08.303Z,993.97
2018-03-03T01:47:08.317Z,993.97
2018-03-03T01:48:08.295Z,993.93
2018-03-03T01:49:08.296Z,993.92
2018-03-03T01:50:08.291Z,993.89
2018-03-03T01:51:08.276Z,993.87
2018-03-03T01:52:08.275Z,993.86
2018-03-03T01:53:08.263Z,993.86
2018-03-03T01:54:08.274Z,993.77
2018-03-03T01:55:08.269Z,993.80
2018-03-03T01:56:08.250Z,993.83
2018-03-03T01:57:08.249Z,993.79
2018-03-03T01:58:08.241Z,993.80
2018-03-03T01:59:08.231Z,993.83
2018-03-03T02:00:08.227Z,993.83
2018-03-03T02:01:08.230Z,993.82
2018-03-03T02:02:08.216Z,993.85
2018-03-03T02:03:08.211Z,993.79
2018-03-03T02:04:08.207Z,993.75
2018-03-03T02:05:08.201Z,993.79
2018-03-03T02:06:08.182Z,993.78
2018-03-03T02:07:08.183Z,993.73
2018-03-03T02:08:08.177Z,993.77
2018-03-03T02:09:08.182Z,993.77
2018-03-03T02:10:08.173Z,993.76
2018-03-03T02:11:08.196Z,993.78
2018-03-03T02:12:08.163Z,993.73
2018-03-03T02:13:08.155Z,993.66
2018-03-03T02:14:08.152Z,993.69
2018-03-03T02:15:08.155Z,993.70
2018-03-03T02:16:08.193Z,993.69
2018-03-03T02:17:08.132Z,993.67
2018-03-03T02:18:08.124Z,993.67
2018-03-03T02:19:08.127Z,993.66
2018-03-03T02:20:08.124Z,993.64
2018-03-03T02:21:08.112Z,993.78
2018-03-03T02:22:08.101Z,993.64
2018-03-03T02:23:08.102Z,993.65
2018-03-03T02:24:08.091Z,993.66
2018-03-03T02:25:08.078Z,993.61
2018-03-03T02:26:08.075Z,993.58
2018-03-03T02:27:08.077Z,993.63
2018-03-03T02:28:08.078Z,993.58
2018-03-03T02:29:08.061Z,993.54
2018-03-03T02:30:08.058Z,993.57
2018-03-03T02:31:08.066Z,993.59
2018-03-03T02:32:08.043Z,993.53
2018-03-03T02:33:08.055Z,993.52
2018-03-03T02:34:08.025Z,993.50
2018-03-03T02:35:08.024Z,993.53
2018-03-03T02:36:08.019Z,993.51
2018-03-03T02:37:08.024Z,993.54
2018-03-03T02:38:08.003Z,993.53
2018-03-03T02:39:08.005Z,993.50
2018-03-03T02:40:08.004Z,993.53
2018-03-03T02:41:07.993Z,993.55
2018-03-03T02:42:07.981Z,993.54
2018-03-03T02:43:07.978Z,993.51
2018-03-03T02:44:07.977Z,993.54
2018-03-03T02:45:07.979Z,993.48
2018-03-03T02:46:07.961Z,993.46
2018-03-03T02:47:07.959Z,993.45
2018-03-03T02:48:07.967Z,993.49
2018-03-03T02:49:07.946Z,993.49
2018-03-03T02:50:07.948Z,993.51
2018-03-03T02:51:07.948Z,993.47
2018-03-03T02:52:07.923Z,993.47
2018-03-03T02:53:07.926Z,993.46
2018-03-03T02:54:07.912Z,993.44
2018-03-03T02:55:07.914Z,993.40
2018-03-03T02:56:07.898Z,993.40
2018-03-03T02:57:07.898Z,993.42
2018-03-03T02:58:07.898Z,993.33
2018-03-03T02:59:07.895Z,993.32
2018-03-03T03:00:07.879Z,993.29
2018-03-03T03:01:07.882Z,993.28
2018-03-03T03:02:07.870Z,993.24
2018-03-03T03:03:07.863Z,993.26
2018-03-03T03:04:07.862Z,993.18
2018-03-03T03:05:07.848Z,993.23
2018-03-03T03:06:07.852Z,993.16
2018-03-03T03:07:07.849Z,993.16
2018-03-03T03:08:07.835Z,993.15
2018-03-03T03:09:07.832Z,993.09
2018-03-03T03:10:07.825Z,993.06
2018-03-03T03:11:07.819Z,993.06
2018-03-03T03:12:07.814Z,993.06
2018-03-03T03:13:07.807Z,992.99
2018-03-03T03:14:07.801Z,992.98
2018-03-03T03:15:07.797Z,992.94
2018-03-03T03:16:07.799Z,992.98
2018-03-03T03:17:07.774Z,992.95
2018-03-03T03:18:07.782Z,992.90
2018-03-03T03:19:07.792Z,992.87
2018-03-03T03:20:07.768Z,992.89
2018-03-03T03:21:07.769Z,992.91
2018-03-03T03:22:07.759Z,992.86
2018-03-03T03:23:07.759Z,992.87
2018-03-03T03:24:07.747Z,992.89
2018-03-03T03:25:07.747Z,992.89
2018-03-03T03:26:07.743Z,992.86
2018-03-03T03:27:07.724Z,992.86
2018-03-03T03:28:07.721Z,992.90
2018-03-03T03:29:07.718Z,992.86
2018-03-03T03:30:07.713Z,992.90
2018-03-03T03:31:07.703Z,992.88
2018-03-03T03:32:07.707Z,992.90
2018-03-03T03:33:07.692Z,992.85
2018-03-03T03:34:07.705Z,992.81
2018-03-03T03:35:07.675Z,992.81
2018-03-03T03:36:07.674Z,992.83
2018-03-03T03:37:07.664Z,992.85
2018-03-03T03:38:07.668Z,992.81
2018-03-03T03:39:07.664Z,992.83
2018-03-03T03:40:07.662Z,992.80
2018-03-03T03:41:07.645Z,992.80
2018-03-03T03:42:07.640Z,992.80
2018-03-03T03:43:07.640Z,992.78
2018-03-03T03:44:07.634Z,992.83
2018-03-03T03:45:07.628Z,992.87
2018-03-03T03:46:07.619Z,992.85
2018-03-03T03:47:07.620Z,992.88
2018-03-03T03:48:07.604Z,992.83
2018-03-03T03:49:07.608Z,992.82
2018-03-03T03:50:07.599Z,992.84
2018-03-03T03:51:07.584Z,992.85
2018-03-03T03:52:07.573Z,992.80
2018-03-03T03:53:07.590Z,992.81
2018-03-03T03:54:07.570Z,992.76
2018-03-03T03:55:07.570Z,992.72
2018-03-03T03:56:07.565Z,992.75
2018-03-03T03:57:07.554Z,992.70
2018-03-03T03:58:07.550Z,992.71
2018-03-03T03:59:07.560Z,992.69
2018-03-03T04:00:07.534Z,992.69
2018-03-03T04:01:07.524Z,992.71
2018-03-03T04:02:07.546Z,992.69
2018-03-03T04:03:07.528Z,992.71
2018-03-03T04:04:07.525Z,992.70
2018-03-03T04:05:07.523Z,992.75
2018-03-03T04:06:07.499Z,992.64
2018-03-03T04:07:07.503Z,992.71
2018-03-03T04:08:07.501Z,992.74
2018-03-03T04:09:07.494Z,992.69
2018-03-03T04:10:07.481Z,992.70
2018-03-03T04:11:07.479Z,992.66
2018-03-03T04:12:07.479Z,992.69
2018-03-03T04:13:07.460Z,992.63
2018-03-03T04:14:07.448Z,992.65
2018-03-03T04:15:07.445Z,992.60
2018-03-03T04:16:07.444Z,992.60
2018-03-03T04:17:07.437Z,992.60
2018-03-03T04:18:07.439Z,992.64
2018-03-03T04:19:07.429Z,992.58
2018-03-03T04:20:07.430Z,992.53
2018-03-03T04:21:07.419Z,992.57
2018-03-03T04:22:07.413Z,992.58
2018-03-03T04:23:07.412Z,992.58
2018-03-03T04:24:07.395Z,992.57
2018-03-03T04:25:07.403Z,992.59
2018-03-03T04:26:07.395Z,992.64
2018-03-03T04:27:07.391Z,992.59
2018-03-03T04:28:07.380Z,992.64
2018-03-03T04:29:07.386Z,992.61
2018-03-03T04:30:07.369Z,992.64
2018-03-03T04:31:07.370Z,992.57
2018-03-03T04:32:07.353Z,992.57
2018-03-03T04:33:07.354Z,992.59
2018-03-03T04:34:07.341Z,992.53
2018-03-03T04:35:07.361Z,992.52
2018-03-03T04:36:07.334Z,992.54
2018-03-03T04:37:07.335Z,992.50
2018-03-03T04:38:07.331Z,992.57
2018-03-03T04:39:07.318Z,992.49
2018-03-03T04:40:07.304Z,992.43
2018-03-03T04:41:07.306Z,992.46
2018-03-03T04:42:07.299Z,992.47
2018-03-03T04:43:07.295Z,992.51
2018-03-03T04:44:07.291Z,992.48
2018-03-03T04:45:07.281Z,992.43
2018-03-03T04:46:07.266Z,992.48
2018-03-03T04:47:07.278Z,992.49
2018-03-03T04:48:07.261Z,992.48
2018-03-03T04:49:07.249Z,992.48
2018-03-03T04:50:07.260Z,992.47
2018-03-03T04:51:07.241Z,992.49
2018-03-03T04:52:07.239Z,992.46
2018-03-03T04:53:07.234Z,992.48
2018-03-03T04:54:07.231Z,992.42
2018-03-03T04:55:07.225Z,992.41
2018-03-03T04:56:07.221Z,992.43
2018-03-03T04:57:07.212Z,992.39
2018-03-03T04:58:07.205Z,992.36
2018-03-03T04:59:07.196Z,992.39
2018-03-03T05:00:07.195Z,992.38
2018-03-03T05:01:07.185Z,992.34
2018-03-03T05:02:07.185Z,992.36
2018-03-03T05:03:07.174Z,992.39
2018-03-03T05:04:07.171Z,992.40
2018-03-03T05:05:07.159Z,992.33
2018-03-03T05:06:07.165Z,992.30
2018-03-03T05:07:07.157Z,992.33
2018-03-03T05:08:07.145Z,992.33
2018-03-03T05:09:07.145Z,992.30
2018-03-03T05:10:07.139Z,992.34
2018-03-03T05:11:07.144Z,992.38
2018-03-03T05:12:07.119Z,992.38
2018-03-03T05:13:07.132Z,992.35
2018-03-03T05:14:07.116Z,992.36
2018-03-03T05:15:07.105Z,992.33
2018-03-03T05:16:07.107Z,992.32
2018-03-03T05:17:07.090Z,992.32
2018-03-03T05:18:07.091Z,992.32
2018-03-03T05:19:07.085Z,992.27
2018-03-03T05:20:07.086Z,992.30
2018-03-03T05:21:07.085Z,992.26
2018-03-03T05:22:07.060Z,992.30
2018-03-03T05:23:07.074Z,992.28
2018-03-03T05:24:07.060Z,992.34
2018-03-03T05:25:07.046Z,992.28
2018-03-03T05:26:07.040Z,992.28
2018-03-03T05:27:07.048Z,992.26
2018-03-03T05:28:07.041Z,992.25
2018-03-03T05:29:07.032Z,992.23
2018-03-03T05:30:07.025Z,992.19
2018-03-03T05:31:07.020Z,992.20
2018-03-03T05:32:07.009Z,992.18
2018-03-03T05:33:07.009Z,992.14
2018-03-03T05:34:07.000Z,992.20
2018-03-03T05:35:06.996Z,992.19
2018-03-03T05:36:06.980Z,992.15
2018-03-03T05:37:06.987Z,992.19
2018-03-03T05:38:06.975Z,992.16
2018-03-03T05:39:06.976Z,992.18
2018-03-03T05:40:06.970Z,992.18
2018-03-03T05:41:06.966Z,992.20
2018-03-03T05:42:06.950Z,992.18
2018-03-03T05:43:06.941Z,992.18
2018-03-03T05:44:06.941Z,992.20
2018-03-03T05:45:06.937Z,992.18
2018-03-03T05:46:06.934Z,992.16
2018-03-03T05:47:06.925Z,992.14
2018-03-03T05:48:06.915Z,992.16
2018-03-03T05:49:06.925Z,992.09
2018-03-03T05:50:06.896Z,992.21
2018-03-03T05:51:06.902Z,992.18
2018-03-03T05:52:06.900Z,992.21
2018-03-03T05:53:06.888Z,992.19
2018-03-03T05:54:06.886Z,992.22
2018-03-03T05:55:06.880Z,992.20
2018-03-03T05:56:06.873Z,992.18
2018-03-03T05:57:06.869Z,992.24
2018-03-03T05:58:06.860Z,992.20
2018-03-03T05:59:06.857Z,992.21
2018-03-03T06:00:06.855Z,992.24
2018-03-03T06:01:06.844Z,992.19
2018-03-03T06:02:06.832Z,992.24
2018-03-03T06:03:06.832Z,992.27
2018-03-03T06:04:06.830Z,992.27
2018-03-03T06:05:06.826Z,992.26
2018-03-03T06:06:06.826Z,992.26
2018-03-03T06:07:06.813Z,992.25
2018-03-03T06:08:06.805Z,992.25
2018-03-03T06:09:06.800Z,992.27
2018-03-03T06:10:06.791Z,992.27
2018-03-03T06:11:06.786Z,992.29
2018-03-03T06:12:06.796Z,992.28
2018-03-03T06:13:06.771Z,992.33
2018-03-03T06:14:06.761Z,992.34
2018-03-03T06:15:06.769Z,992.31
2018-03-03T06:16:06.763Z,992.31
2018-03-03T06:17:06.769Z,992.31
2018-03-03T06:18:06.747Z,992.34
2018-03-03T06:19:06.731Z,992.27
2018-03-03T06:20:06.774Z,992.29
2018-03-03T06:21:06.765Z,992.30
2018-03-03T06:22:06.726Z,992.28
2018-03-03T06:23:06.764Z,992.25
2018-03-03T06:24:06.721Z,992.26
2018-03-03T06:25:06.703Z,992.27
2018-03-03T06:26:06.699Z,992.25
2018-03-03T06:27:06.701Z,992.25
2018-03-03T06:28:06.688Z,992.23
2018-03-03T06:29:06.685Z,992.27
2018-03-03T06:30:06.682Z,992.31
2018-03-03T06:31:06.683Z,992.28
2018-03-03T06:32:06.677Z,992.37
2018-03-03T06:33:06.667Z,992.33
2018-03-03T06:34:06.650Z,992.37
2018-03-03T06:35:06.651Z,992.37
2018-03-03T06:36:06.644Z,992.39
2018-03-03T06:37:06.656Z,992.36
2018-03-03T06:38:06.633Z,992.35
2018-03-03T06:39:06.631Z,992.40
2018-03-03T06:40:06.623Z,992.39
2018-03-03T06:41:06.629Z,992.40
2018-03-03T06:42:06.602Z,992.41
2018-03-03T06:43:06.609Z,992.40
2018-03-03T06:44:06.593Z,992.42
2018-03-03T06:45:06.582Z,992.42
2018-03-03T06:46:06.581Z,992.40
2018-03-03T06:47:06.615Z,992.45
2018-03-03T06:48:06.581Z,992.44
2018-03-03T06:49:06.571Z,992.36
2018-03-03T06:50:06.563Z,992.40
2018-03-03T06:51:06.562Z,992.43
2018-03-03T06:52:06.549Z,992.40
2018-03-03T06:53:06.543Z,992.42
2018-03-03T06:54:06.587Z,992.40
2018-03-03T06:55:06.542Z,992.40
2018-03-03T06:56:06.528Z,992.46
2018-03-03T06:57:06.518Z,992.42
2018-03-03T06:58:06.517Z,992.43
2018-03-03T06:59:06.508Z,992.46
2018-03-03T07:00:06.503Z,992.50
2018-03-03T07:01:06.505Z,992.47
2018-03-03T07:02:06.487Z,992.48
2018-03-03T07:03:06.488Z,992.47
2018-03-03T07:04:06.475Z,992.43
2018-03-03T07:05:06.474Z,992.52
2018-03-03T07:06:06.477Z,992.56
2018-03-03T07:07:06.470Z,992.52
2018-03-03T07:08:06.486Z,992.55
2018-03-03T07:09:06.454Z,992.60
2018-03-03T07:10:06.445Z,992.60
2018-03-03T07:11:06.440Z,992.62
2018-03-03T07:12:06.442Z,992.61
2018-03-03T07:13:06.431Z,992.62
2018-03-03T07:14:06.426Z,992.58
2018-03-03T07:15:06.414Z,992.55
2018-03-03T07:16:06.413Z,992.56
2018-03-03T07:17:06.419Z,992.57
2018-03-03T07:18:06.406Z,992.53
2018-03-03T07:19:06.401Z,992.51
2018-03-03T07:20:06.391Z,992.58
2018-03-03T07:21:06.384Z,992.60
2018-03-03T07:22:06.387Z,992.58
2018-03-03T07:23:06.387Z,992.59
2018-03-03T07:24:06.367Z,992.59
2018-03-03T07:25:06.367Z,992.64
2018-03-03T07:26:06.364Z,992.66
2018-03-03T07:27:06.352Z,992.69
2018-03-03T07:28:06.333Z,992.74
2018-03-03T07:29:06.357Z,992.72
2018-03-03T07:30:06.332Z,992.69
2018-03-03T07:31:06.343Z,992.67
2018-03-03T07:32:06.320Z,992.65
2018-03-03T07:33:06.319Z,992.66
2018-03-03T07:34:06.318Z,992.65
2018-03-03T07:35:06.308Z,992.64
2018-03-03T07:36:06.309Z,992.72
2018-03-03T07:37:06.284Z,992.70
2018-03-03T07:38:06.286Z,992.66
2018-03-03T07:39:06.292Z,992.63
2018-03-03T07:40:06.285Z,992.64
2018-03-03T07:41:06.280Z,992.69
2018-03-03T07:42:06.263Z,992.65
2018-03-03T07:43:06.274Z,992.63
2018-03-03T07:44:06.257Z,992.65
2018-03-03T07:45:06.243Z,992.65
2018-03-03T07:46:06.249Z,992.60
2018-03-03T07:47:06.245Z,992.54
2018-03-03T07:48:06.226Z,992.62
2018-03-03T07:49:06.228Z,992.58
2018-03-03T07:50:06.223Z,992.56
2018-03-03T07:51:06.212Z,992.59
2018-03-03T07:52:06.213Z,992.58
2018-03-03T07:53:06.202Z,992.61
2018-03-03T07:54:06.189Z,992.65
2018-03-03T07:55:06.194Z,992.65
2018-03-03T07:56:06.189Z,992.70
2018-03-03T07:57:06.189Z,992.73
2018-03-03T07:58:06.178Z,992.71
2018-03-03T07:59:06.168Z,992.74
2018-03-03T08:00:06.164Z,992.77
2018-03-03T08:01:06.158Z,992.71
2018-03-03T08:02:06.173Z,992.71
2018-03-03T08:03:06.148Z,992.71
2018-03-03T08:04:06.150Z,992.72
2018-03-03T08:05:06.129Z,992.72
2018-03-03T08:06:06.123Z,992.69
2018-03-03T08:07:06.125Z,992.67
2018-03-03T08:08:06.116Z,992.70
2018-03-03T08:09:06.115Z,992.69
2018-03-03T08:10:06.108Z,992.68
2018-03-03T08:11:06.090Z,992.67
2018-03-03T08:12:06.097Z,992.71
2018-03-03T08:13:06.095Z,992.68
2018-03-03T08:14:06.083Z,992.70
2018-03-03T08:15:06.084Z,992.64
2018-03-03T08:16:06.073Z,992.67
2018-03-03T08:17:06.059Z,992.64
2018-03-03T08:18:06.089Z,992.71
2018-03-03T08:19:06.052Z,992.69
2018-03-03T08:20:06.050Z,992.68
2018-03-03T08:21:06.046Z,992.66
2018-03-03T08:22:06.058Z,992.68
2018-03-03T08:23:06.058Z,992.70
2018-03-03T08:24:06.021Z,992.66
2018-03-03T08:25:06.022Z,992.67
2018-03-03T08:26:06.045Z,992.59
2018-03-03T08:27:06.029Z,992.64
2018-03-03T08:28:06.008Z,992.62
2018-03-03T08:29:05.998Z,992.59
2018-03-03T08:30:05.994Z,992.64
2018-03-03T08:31:05.998Z,992.65
2018-03-03T08:32:06.012Z,992.62
2018-03-03T08:33:05.969Z,992.63
2018-03-03T08:34:05.974Z,992.61
2018-03-03T08:35:05.963Z,992.68
2018-03-03T08:36:05.962Z,992.70
2018-03-03T08:37:05.950Z,992.68
2018-03-03T08:38:05.949Z,992.68
2018-03-03T08:39:05.942Z,992.64
2018-03-03T08:40:05.941Z,992.67
2018-03-03T08:41:05.935Z,992.65
2018-03-03T08:42:05.929Z,992.63
2018-03-03T08:43:05.930Z,992.64
2018-03-03T08:44:05.906Z,992.64
2018-03-03T08:45:05.909Z,992.62
2018-03-03T08:46:05.903Z,992.62
2018-03-03T08:47:06.372Z,992.61
2018-03-03T08:48:05.899Z,992.55
2018-03-03T08:49:05.892Z,992.60
2018-03-03T08:50:05.888Z,992.62
2018-03-03T08:51:06.359Z,992.59
2018-03-03T08:52:05.882Z,992.58
2018-03-03T08:53:05.858Z,992.62
2018-03-03T08:54:05.860Z,992.63
2018-03-03T08:55:05.851Z,992.57
2018-03-03T08:56:05.859Z,992.63
2018-03-03T08:57:05.840Z,992.61
2018-03-03T08:58:05.852Z,992.64
2018-03-03T08:59:05.828Z,992.66
2018-03-03T09:00:05.812Z,992.64
2018-03-03T09:01:05.826Z,992.64
2018-03-03T09:02:05.808Z,992.65
2018-03-03T09:03:05.813Z,992.69
2018-03-03T09:04:05.800Z,992.74
2018-03-03T09:05:05.814Z,992.74
2018-03-03T09:06:05.796Z,992.69
2018-03-03T09:07:05.778Z,992.69
2018-03-03T09:08:05.785Z,992.71
2018-03-03T09:09:05.780Z,992.72
2018-03-03T09:10:05.787Z,992.69
2018-03-03T09:11:05.759Z,992.68
2018-03-03T09:12:05.769Z,992.71
2018-03-03T09:13:05.772Z,992.70
2018-03-03T09:14:05.749Z,992.73
2018-03-03T09:15:05.741Z,992.74
2018-03-03T09:16:05.734Z,992.71
2018-03-03T09:17:05.741Z,992.76
2018-03-03T09:18:05.732Z,992.73
2018-03-03T09:19:05.730Z,992.68
2018-03-03T09:20:05.711Z,992.82
2018-03-03T09:21:05.725Z,992.75
2018-03-03T09:22:05.714Z,992.75
2018-03-03T09:23:05.695Z,992.77
2018-03-03T09:24:05.705Z,992.81
2018-03-03T09:25:05.702Z,992.81
2018-03-03T09:26:05.691Z,992.84
2018-03-03T09:27:05.695Z,992.83
2018-03-03T09:28:05.681Z,992.82
2018-03-03T09:29:05.679Z,992.86
2018-03-03T09:30:05.659Z,992.86
2018-03-03T09:31:05.655Z,992.86
2018-03-03T09:32:05.656Z,992.89
2018-03-03T09:33:05.645Z,992.89
2018-03-03T09:34:05.646Z,992.87
2018-03-03T09:35:05.647Z,992.96
2018-03-03T09:36:05.659Z,992.83
2018-03-03T09:38:30.564Z,992.86
